createdAt,value
2018-05-17T00:03:13.277Z,100276
2018-05-17T00:08:14.941Z,100281
2018-05-17T00:13:16.455Z,100294
2018-05-17T00:18:17.980Z,100299
2018-05-17T00:23:19.547Z,100295
2018-05-17T00:28:21.910Z,100288
2018-05-17T00:33:23.438Z,100294
2018-05-17T00:38:25.008Z,100284
2018-05-17T00:43:26.551Z,100278
2018-05-17T00:48:28.041Z,100262
2018-05-17T00:53:30.436Z,100263
2018-05-17T00:58:32.007Z,100252
2018-05-17T01:03:33.522Z,100253
2018-05-17T01:08:35.199Z,100243
2018-05-17T01:13:36.718Z,100242
2018-05-17T01:18:38.284Z,100244
2018-05-17T01:23:39.903Z,100245
2018-05-17T01:28:41.373Z,100234
2018-05-17T01:33:42.839Z,100229
2018-05-17T01:38:44.364Z,100232
2018-05-17T01:43:45.963Z,100228
2018-05-17T01:48:47.596Z,100230
2018-05-17T01:53:49.046Z,100230
2018-05-17T01:58:51.273Z,100226
2018-05-17T02:03:52.844Z,100235
2018-05-17T02:08:54.372Z,100233
2018-05-17T02:13:55.888Z,100232
2018-05-17T02:18:57.439Z,100227
2018-05-17T02:23:58.967Z,100235
2018-05-17T02:29:01.235Z,100248
2018-05-17T02:34:02.789Z,100241
2018-05-17T02:39:05.212Z,100243
2018-05-17T02:44:07.482Z,100254
2018-05-17T02:49:09.920Z,100245
2018-05-17T02:54:11.435Z,100259
2018-05-17T02:59:13.704Z,100252
2018-05-17T03:04:15.195Z,100255
2018-05-17T03:09:17.521Z,100257
2018-05-17T03:14:19.188Z,100260
2018-05-17T03:19:20.729Z,100250
2018-05-17T03:24:23.064Z,100257
2018-05-17T03:29:24.613Z,100264
2018-05-17T03:34:26.192Z,100259
2018-05-17T03:39:28.423Z,100269
2018-05-17T03:44:30.689Z,100259
2018-05-17T03:49:32.225Z,100268
2018-05-17T03:54:33.778Z,100274
2018-05-17T03:59:35.333Z,100265
2018-05-17T04:04:55.291Z,100270
2018-05-17T04:09:56.766Z,100260
2018-05-17T04:14:58.257Z,100270
2018-05-17T04:19:59.866Z,100288
2018-05-17T04:25:01.437Z,100282
2018-05-17T04:30:03.145Z,100284
2018-05-17T04:35:04.689Z,100281
2018-05-17T04:40:06.203Z,100277
2018-05-17T04:45:07.754Z,100290
2018-05-17T04:50:10.022Z,100284
2018-05-17T04:55:11.588Z,100300
2018-05-17T05:00:13.127Z,100298
2018-05-17T05:05:14.667Z,100318
2018-05-17T05:10:16.247Z,100310
2018-05-17T05:15:17.881Z,100314
2018-05-17T05:20:20.145Z,100330
2018-05-17T05:25:21.864Z,100335
2018-05-17T05:30:24.083Z,100341
2018-05-17T05:35:25.610Z,100346
2018-05-17T05:40:27.202Z,100355
2018-05-17T05:45:28.706Z,100359
2018-05-17T05:50:30.197Z,100354
2018-05-17T05:55:32.549Z,100357
2018-05-17T06:00:34.079Z,100358
2018-05-17T06:05:35.525Z,100373
2018-05-17T06:10:37.788Z,100363
2018-05-17T06:15:39.272Z,100368
2018-05-17T06:20:41.572Z,100379
2018-05-17T06:25:43.109Z,100387
2018-05-17T06:30:44.677Z,100378
2018-05-17T06:35:46.215Z,100381
2018-05-17T06:40:47.731Z,100393
2018-05-17T06:45:49.998Z,100402
2018-05-17T06:50:52.265Z,100401
2018-05-17T06:55:53.739Z,100409
2018-05-17T07:00:55.302Z,100406
2018-05-17T07:05:56.987Z,100407
2018-05-17T07:10:58.597Z,100409
2018-05-17T07:16:00.072Z,100415
2018-05-17T07:21:01.545Z,100415
2018-05-17T07:26:03.093Z,100409
2018-05-17T07:31:04.853Z,100410
2018-05-17T07:36:07.141Z,100416
2018-05-17T07:41:09.391Z,100433
2018-05-17T07:46:10.830Z,100421
2018-05-17T07:51:12.450Z,100432
2018-05-17T07:56:14.700Z,100436
2018-05-17T08:01:16.267Z,100444
2018-05-17T08:06:17.864Z,100443
2018-05-17T08:11:19.416Z,100450
2018-05-17T08:16:20.955Z,100452
2018-05-17T08:21:22.496Z,100449
2018-05-17T08:26:24.091Z,100455
2018-05-17T08:31:25.629Z,100443
2018-05-17T08:36:27.336Z,100453
2018-05-17T08:41:28.842Z,100456
2018-05-17T08:46:30.379Z,100459
2018-05-17T08:51:31.898Z,100465
2018-05-17T08:56:34.169Z,100463
2018-05-17T09:01:36.471Z,100467
2018-05-17T09:06:38.740Z,100465
2018-05-17T09:11:40.288Z,100467
2018-05-17T09:16:41.856Z,100467
2018-05-17T09:21:43.378Z,100478
2018-05-17T09:26:44.912Z,100469
2018-05-17T09:31:47.188Z,100476
2018-05-17T09:36:49.491Z,100483
2018-05-17T09:41:51.820Z,100474
2018-05-17T09:46:53.647Z,100471
2018-05-17T09:51:55.886Z,100477
2018-05-17T09:56:57.470Z,100479
2018-05-17T10:01:58.962Z,100475
2018-05-17T10:07:01.258Z,100466
2018-05-17T10:12:02.840Z,100464
2018-05-17T10:17:04.355Z,100473
2018-05-17T10:22:06.037Z,100476
2018-05-17T10:27:07.657Z,100473
2018-05-17T10:32:09.230Z,100466
2018-05-17T10:37:10.746Z,100475
2018-05-17T10:42:12.427Z,100472
2018-05-17T10:47:13.899Z,100467
2018-05-17T10:52:16.228Z,100474
2018-05-17T10:57:17.791Z,100472
2018-05-17T11:02:19.303Z,100479
2018-05-17T11:07:21.074Z,100482
2018-05-17T11:12:23.419Z,100489
2018-05-17T11:17:24.973Z,100486
2018-05-17T11:22:26.536Z,100489
2018-05-17T11:27:28.116Z,100489
2018-05-17T11:32:29.754Z,100493
2018-05-17T11:37:32.031Z,100496
2018-05-17T11:42:34.316Z,100493
2018-05-17T11:47:35.858Z,100492
2018-05-17T11:52:37.393Z,100496
2018-05-17T11:57:38.942Z,100487
2018-05-17T12:02:40.540Z,100480
2018-05-17T12:07:42.130Z,100484
2018-05-17T12:12:43.690Z,100484
2018-05-17T12:17:45.255Z,100494
2018-05-17T12:22:46.758Z,100483
2018-05-17T12:27:48.291Z,100480
2018-05-17T12:32:49.860Z,100477
2018-05-17T12:37:51.425Z,100490
2018-05-17T12:42:53.092Z,100483
2018-05-17T12:47:54.763Z,100486
2018-05-17T12:52:56.284Z,100488
2018-05-17T12:57:58.553Z,100493
2018-05-17T13:03:00.103Z,100489
2018-05-17T13:08:01.754Z,100476
2018-05-17T13:13:03.363Z,100484
2018-05-17T13:18:04.844Z,100488
2018-05-17T13:23:07.205Z,100476
2018-05-17T13:28:08.979Z,100482
2018-05-17T13:33:10.525Z,100470
2018-05-17T13:38:12.064Z,100475
2018-05-17T13:43:13.618Z,100476
2018-05-17T13:48:15.185Z,100473
2018-05-17T13:53:16.707Z,100465
2018-05-17T13:58:18.254Z,100460
2018-05-17T14:03:19.803Z,100461
2018-05-17T14:08:21.321Z,100467
2018-05-17T14:13:22.811Z,100456
2018-05-17T14:18:25.127Z,100458
2018-05-17T14:23:26.622Z,100463
2018-05-17T14:28:28.223Z,100453
2018-05-17T14:33:30.407Z,100458
2018-05-17T14:38:32.642Z,100458
2018-05-17T14:43:34.231Z,100465
2018-05-17T14:48:35.789Z,100465
2018-05-17T14:53:37.448Z,100457
2018-05-17T14:58:38.955Z,100455
2018-05-17T15:03:41.320Z,100452
2018-05-17T15:08:42.962Z,100453
2018-05-17T15:13:44.414Z,100446
2018-05-17T15:18:46.073Z,100453
2018-05-17T15:23:48.359Z,100453
2018-05-17T15:28:50.700Z,100446
2018-05-17T15:33:52.227Z,100439
2018-05-17T15:38:53.700Z,100448
2018-05-17T15:43:55.184Z,100443
2018-05-17T15:48:56.733Z,100443
2018-05-17T15:53:58.192Z,100450
2018-05-17T15:58:59.726Z,100444
2018-05-17T16:04:01.434Z,100442
2018-05-17T16:09:02.971Z,100440
2018-05-17T16:14:05.303Z,100445
2018-05-17T16:19:06.844Z,100448
2018-05-17T16:24:08.396Z,100446
2018-05-17T16:29:10.805Z,100449
2018-05-17T16:34:12.340Z,100450
2018-05-17T16:39:13.796Z,100458
2018-05-17T16:44:15.354Z,100448
2018-05-17T16:49:16.885Z,100462
2018-05-17T16:54:18.495Z,100457
2018-05-17T16:59:19.841Z,100457
2018-05-17T17:04:21.430Z,100469
2018-05-17T17:09:22.948Z,100462
2018-05-17T17:14:24.454Z,100456
2018-05-17T17:19:26.016Z,100464
2018-05-17T17:24:27.494Z,100468
2018-05-17T17:29:29.016Z,100466
2018-05-17T17:34:30.503Z,100454
2018-05-17T17:39:32.038Z,100460
2018-05-17T17:44:34.276Z,100458
2018-05-17T17:49:35.728Z,100454
2018-05-17T17:54:37.234Z,100455
2018-05-17T17:59:38.725Z,100454
2018-05-17T18:04:40.978Z,100464
2018-05-17T18:09:42.475Z,100459
2018-05-17T18:14:44.763Z,100451
2018-05-17T18:19:47.024Z,100461
2018-05-17T18:24:49.738Z,100459
2018-05-17T18:29:51.894Z,100469
2018-05-17T18:34:53.354Z,100466
2018-05-17T18:39:54.865Z,100478
2018-05-17T18:44:56.411Z,100470
2018-05-17T18:49:57.956Z,100473
2018-05-17T18:54:59.555Z,100478
2018-05-17T19:00:01.916Z,100480
2018-05-17T19:05:03.432Z,100493
2018-05-17T19:10:04.910Z,100496
2018-05-17T19:15:06.659Z,100500
2018-05-17T19:20:08.884Z,100505
2018-05-17T19:25:10.369Z,100505
2018-05-17T19:30:11.824Z,100515
2018-05-17T19:35:13.261Z,100514
2018-05-17T19:40:14.813Z,100509
2018-05-17T19:45:17.166Z,100512
2018-05-17T19:50:18.643Z,100525
2018-05-17T19:55:20.158Z,100521
2018-05-17T20:00:21.738Z,100529
2018-05-17T20:05:23.259Z,100533
2018-05-17T20:10:25.504Z,100525
2018-05-17T20:15:27.013Z,100523
2018-05-17T20:20:29.216Z,100522
2018-05-17T20:25:31.377Z,100525
2018-05-17T20:30:33.628Z,100529
2018-05-17T20:35:35.108Z,100533
2018-05-17T20:40:36.605Z,100532
2018-05-17T20:45:38.059Z,100541
2018-05-17T20:50:40.232Z,100546
2018-05-17T20:55:41.696Z,100552
2018-05-17T21:00:43.222Z,100549
2018-05-17T21:05:44.709Z,100547
2018-05-17T21:10:46.184Z,100548
2018-05-17T21:15:47.722Z,100554
2018-05-17T21:20:49.455Z,100561
2018-05-17T21:25:51.646Z,100554
2018-05-17T21:30:53.919Z,100555
2018-05-17T21:35:56.302Z,100559
2018-05-17T21:40:58.552Z,100552
2018-05-17T21:46:00.038Z,100557
2018-05-17T21:51:01.525Z,100562
2018-05-17T21:56:03.732Z,100558
2018-05-17T22:01:05.242Z,100566
2018-05-17T22:06:06.800Z,100564
2018-05-17T22:11:08.264Z,100568
2018-05-17T22:16:09.748Z,100575
2018-05-17T22:21:11.247Z,100581
2018-05-17T22:26:13.463Z,100576
2018-05-17T22:31:14.953Z,100572
2018-05-17T22:36:16.442Z,100578
2018-05-17T22:41:17.933Z,100597
2018-05-17T22:46:20.190Z,100592
2018-05-17T22:51:21.703Z,100601
2018-05-17T22:56:41.705Z,100592
2018-05-17T23:01:43.379Z,100602
2018-05-17T23:06:44.859Z,100592
2018-05-17T23:11:46.381Z,100598
2018-05-17T23:16:48.608Z,100586
2018-05-17T23:21:50.162Z,100593
2018-05-17T23:26:51.626Z,100588
2018-05-17T23:31:53.151Z,100590
2018-05-17T23:36:54.651Z,100586
2018-05-17T23:41:56.213Z,100583
2018-05-17T23:46:58.418Z,100579
2018-05-17T23:51:59.871Z,100576
2018-05-17T23:57:02.069Z,100582
